createdAt,value
2022-10-19T00:00:51.600Z,100401.53
2022-10-19T00:03:40.254Z,100394.03
2022-10-19T00:06:30.344Z,100393.97
2022-10-19T00:09:19.455Z,100397.16
2022-10-19T00:12:05.892Z,100387.94
2022-10-19T00:14:52.513Z,100388.12
2022-10-19T00:17:38.800Z,100384.88
2022-10-19T00:20:25.376Z,100380.94
2022-10-19T00:23:15.389Z,100377.44
2022-10-19T00:26:02.664Z,100381.94
2022-10-19T00:28:49.444Z,100378.66
2022-10-19T00:31:36.263Z,100373.59
2022-10-19T00:34:25.286Z,100369.91
2022-10-19T00:37:12.602Z,100367.47
2022-10-19T00:39:59.326Z,100372.00
2022-10-19T00:42:45.770Z,100365.81
2022-10-19T00:45:32.006Z,100363.53
2022-10-19T00:48:28.317Z,100358.41
2022-10-19T00:51:14.999Z,100353.59
2022-10-19T00:54:04.257Z,100353.44
2022-10-19T00:56:52.567Z,100337.38
2022-10-19T00:59:40.371Z,100342.03
2022-10-19T01:02:26.487Z,100340.44
2022-10-19T01:05:14.630Z,100328.50
2022-10-19T01:08:01.456Z,100326.25
2022-10-19T01:10:52.769Z,100322.59
2022-10-19T01:14:03.151Z,100326.56
2022-10-19T01:17:11.744Z,100321.50
2022-10-19T01:20:21.938Z,100319.19
2022-10-19T01:23:14.308Z,100312.06
2022-10-19T01:26:12.519Z,100310.69
2022-10-19T01:29:33.554Z,100315.37
2022-10-19T01:32:22.878Z,100307.59
2022-10-19T01:35:37.769Z,100301.03
2022-10-19T01:38:35.525Z,100301.66
2022-10-19T01:41:44.506Z,100290.94
2022-10-19T01:44:49.991Z,100284.87
2022-10-19T01:47:48.264Z,100284.53
2022-10-19T01:50:41.651Z,100272.28
2022-10-19T01:53:32.590Z,100278.13
2022-10-19T01:56:24.710Z,100284.53
2022-10-19T01:59:12.629Z,100283.81
2022-10-19T02:01:59.033Z,100282.09
2022-10-19T02:04:47.257Z,100295.41
2022-10-19T02:07:33.956Z,100289.03
2022-10-19T02:10:20.725Z,100295.00
2022-10-19T02:13:08.286Z,100300.63
2022-10-19T02:15:56.859Z,100304.34
2022-10-19T02:18:47.489Z,100303.28
2022-10-19T02:21:34.925Z,100296.06
2022-10-19T02:24:20.792Z,100299.69
2022-10-19T02:27:08.347Z,100300.66
2022-10-19T02:29:56.222Z,100300.06
2022-10-19T02:32:43.660Z,100310.72
2022-10-19T02:35:31.393Z,100313.62
2022-10-19T02:38:22.514Z,100306.50
2022-10-19T02:41:16.041Z,100301.41
2022-10-19T02:44:16.429Z,100293.53
2022-10-19T02:47:22.647Z,100298.13
2022-10-19T02:50:11.079Z,100289.78
2022-10-19T02:53:02.626Z,100289.62
2022-10-19T02:55:50.632Z,100300.25
2022-10-19T02:58:37.203Z,100298.06
2022-10-19T03:01:25.400Z,100297.84
2022-10-19T03:04:12.105Z,100305.81
2022-10-19T03:06:58.435Z,100304.28
2022-10-19T03:09:45.283Z,100297.75
2022-10-19T03:12:31.931Z,100308.50
2022-10-19T03:15:19.602Z,100300.09
2022-10-19T03:18:07.813Z,100299.00
2022-10-19T03:21:10.034Z,100311.84
2022-10-19T03:23:56.710Z,100307.81
2022-10-19T03:26:43.190Z,100307.84
2022-10-19T03:29:32.975Z,100301.41
2022-10-19T03:32:19.135Z,100303.44
2022-10-19T03:35:06.587Z,100308.66
2022-10-19T03:37:53.947Z,100305.69
2022-10-19T03:40:42.867Z,100298.16
2022-10-19T03:43:31.742Z,100315.97
2022-10-19T03:46:20.734Z,100323.50
2022-10-19T03:49:11.393Z,100320.66
2022-10-19T03:51:59.988Z,100317.84
2022-10-19T03:54:50.699Z,100330.41
2022-10-19T03:57:37.697Z,100318.41
2022-10-19T04:00:26.100Z,100320.84
2022-10-19T04:03:24.655Z,100323.41
2022-10-19T04:06:15.850Z,100324.53
2022-10-19T04:09:06.564Z,100310.38
2022-10-19T04:11:55.023Z,100308.13
2022-10-19T04:14:56.209Z,100310.25
2022-10-19T04:17:45.657Z,100327.84
2022-10-19T04:20:45.607Z,100319.41
2022-10-19T04:23:36.584Z,100328.37
2022-10-19T04:26:27.604Z,100321.34
2022-10-19T04:32:09.612Z,100321.69
2022-10-19T04:34:56.227Z,100320.84
2022-10-19T04:37:45.677Z,100305.88
2022-10-19T04:40:37.821Z,100298.66
2022-10-19T04:43:25.548Z,100300.19
2022-10-19T04:46:16.410Z,100311.22
2022-10-19T04:51:59.936Z,100318.59
2022-10-19T04:54:46.725Z,100307.44
2022-10-19T04:57:37.259Z,100306.06
2022-10-19T05:00:25.736Z,100296.59
2022-10-19T05:03:21.094Z,100293.44
2022-10-19T05:06:11.462Z,100299.56
2022-10-19T05:09:04.587Z,100299.09
2022-10-19T05:11:51.334Z,100309.81
2022-10-19T05:14:41.928Z,100315.22
2022-10-19T05:17:33.110Z,100314.59
2022-10-19T05:20:23.746Z,100322.00
2022-10-19T05:23:12.547Z,100321.09
2022-10-19T05:26:08.587Z,100317.88
2022-10-19T05:28:58.593Z,100333.13
2022-10-19T05:31:45.588Z,100312.16
2022-10-19T05:34:32.689Z,100323.19
2022-10-19T05:37:22.019Z,100322.84
2022-10-19T05:40:10.668Z,100335.19
2022-10-19T05:42:57.490Z,100342.59
2022-10-19T05:45:44.977Z,100332.75
2022-10-19T05:48:35.126Z,100335.87
2022-10-19T05:51:24.590Z,100338.84
2022-10-19T05:54:21.755Z,100349.22
2022-10-19T05:57:11.934Z,100340.75
2022-10-19T05:59:59.578Z,100352.37
2022-10-19T06:02:58.975Z,100350.25
2022-10-19T06:05:46.859Z,100344.59
2022-10-19T06:08:36.988Z,100354.78
2022-10-19T06:11:27.849Z,100358.09
2022-10-19T06:14:16.804Z,100355.53
2022-10-19T06:17:04.619Z,100358.81
2022-10-19T06:19:52.099Z,100367.91
2022-10-19T06:22:38.503Z,100367.66
2022-10-19T06:25:32.722Z,100360.31
2022-10-19T06:28:31.489Z,100366.22
2022-10-19T06:31:18.689Z,100369.09
2022-10-19T06:34:05.884Z,100381.19
2022-10-19T06:36:56.681Z,100384.16
2022-10-19T06:39:43.104Z,100379.78
2022-10-19T06:42:29.583Z,100373.38
2022-10-19T06:45:24.590Z,100385.19
2022-10-19T06:48:15.394Z,100372.84
2022-10-19T06:51:06.396Z,100383.72
2022-10-19T06:53:57.189Z,100379.69
2022-10-19T06:56:45.838Z,100396.28
2022-10-19T06:59:33.322Z,100400.66
2022-10-19T07:02:21.603Z,100412.25
2022-10-19T07:05:09.746Z,100410.59
2022-10-19T07:07:57.898Z,100419.00
2022-10-19T07:10:53.515Z,100413.50
2022-10-19T07:13:40.232Z,100414.38
2022-10-19T07:16:26.913Z,100415.28
2022-10-19T07:19:14.488Z,100414.66
2022-10-19T07:22:01.544Z,100420.97
2022-10-19T07:24:48.090Z,100421.69
2022-10-19T07:27:40.841Z,100424.56
2022-10-19T07:30:34.515Z,100432.59
2022-10-19T07:33:21.092Z,100422.78
2022-10-19T07:36:11.252Z,100424.63
2022-10-19T07:38:58.282Z,100435.12
2022-10-19T07:41:48.632Z,100430.16
2022-10-19T07:44:36.435Z,100430.75
2022-10-19T07:47:24.134Z,100436.94
2022-10-19T07:50:12.756Z,100435.69
2022-10-19T07:52:59.462Z,100445.19
2022-10-19T07:55:46.575Z,100449.97
2022-10-19T07:58:36.422Z,100437.81
2022-10-19T08:01:28.788Z,100434.53
2022-10-19T08:07:26.661Z,100434.38
2022-10-19T08:10:15.515Z,100424.47
2022-10-19T08:13:02.013Z,100429.94
2022-10-19T08:15:50.827Z,100419.84
2022-10-19T08:18:37.103Z,100424.41
2022-10-19T08:21:26.375Z,100435.31
2022-10-19T08:24:20.330Z,100432.88
2022-10-19T08:27:12.046Z,100425.06
2022-10-19T08:30:03.511Z,100428.00
2022-10-19T08:32:50.431Z,100439.63
2022-10-19T08:35:37.035Z,100434.75
2022-10-19T08:38:23.943Z,100428.25
2022-10-19T08:41:19.180Z,100435.91
2022-10-19T08:44:34.156Z,100440.47
2022-10-19T08:47:35.565Z,100428.72
2022-10-19T08:50:31.056Z,100427.81
2022-10-19T08:53:28.590Z,100419.56
2022-10-19T08:56:50.342Z,100425.78
2022-10-19T09:00:00.250Z,100427.25
2022-10-19T09:03:02.416Z,100427.59
2022-10-19T09:05:55.054Z,100425.25
2022-10-19T09:08:42.362Z,100421.91
2022-10-19T09:11:36.907Z,100428.56
2022-10-19T09:14:39.102Z,100433.13
2022-10-19T09:17:32.997Z,100425.84
2022-10-19T09:20:23.620Z,100434.25
2022-10-19T09:23:22.778Z,100428.62
2022-10-19T09:26:19.134Z,100428.44
2022-10-19T09:29:29.483Z,100430.19
2022-10-19T09:32:34.830Z,100419.19
2022-10-19T09:35:32.794Z,100432.50
2022-10-19T09:38:25.480Z,100429.91
2022-10-19T09:41:17.689Z,100428.22
2022-10-19T09:44:05.706Z,100427.88
2022-10-19T09:47:02.509Z,100440.63
2022-10-19T09:49:50.638Z,100444.78
2022-10-19T09:52:39.570Z,100431.88
2022-10-19T09:55:32.730Z,100429.44
2022-10-19T09:58:32.117Z,100443.47
2022-10-19T10:01:41.941Z,100436.81
2022-10-19T10:04:31.601Z,100419.97
2022-10-19T10:07:18.637Z,100432.19
2022-10-19T10:10:20.745Z,100424.91
2022-10-19T10:13:17.651Z,100421.56
2022-10-19T10:16:08.786Z,100415.00
2022-10-19T10:18:58.652Z,100420.94
2022-10-19T10:21:48.090Z,100416.22
2022-10-19T10:24:36.502Z,100408.88
2022-10-19T10:27:33.932Z,100415.06
2022-10-19T10:30:21.960Z,100409.94
2022-10-19T10:33:26.972Z,100405.41
2022-10-19T10:36:30.541Z,100398.91
2022-10-19T10:39:17.719Z,100390.16
2022-10-19T10:42:11.712Z,100389.72
2022-10-19T10:45:01.762Z,100394.84
2022-10-19T10:47:52.780Z,100379.16
2022-10-19T10:50:41.717Z,100387.09
2022-10-19T10:53:35.896Z,100380.34
2022-10-19T10:56:28.360Z,100389.56
2022-10-19T10:59:21.759Z,100382.41
2022-10-19T11:02:42.695Z,100369.66
2022-10-19T11:05:32.833Z,100371.78
2022-10-19T11:09:05.241Z,100369.69
2022-10-19T11:11:57.610Z,100356.88
2022-10-19T11:14:48.695Z,100347.25
2022-10-19T11:17:39.785Z,100355.94
2022-10-19T11:20:34.789Z,100353.81
2022-10-19T11:23:46.622Z,100352.19
2022-10-19T11:26:43.636Z,100347.62
2022-10-19T11:30:09.019Z,100351.66
2022-10-19T11:33:08.103Z,100350.56
2022-10-19T11:35:59.006Z,100342.97
2022-10-19T11:39:10.914Z,100346.78
2022-10-19T11:42:34.854Z,100350.03
2022-10-19T11:45:50.574Z,100332.44
2022-10-19T11:48:43.744Z,100337.19
2022-10-19T11:54:40.994Z,100344.81
2022-10-19T11:57:34.696Z,100329.44
2022-10-19T12:00:38.269Z,100334.66
2022-10-19T12:03:28.856Z,100311.87
2022-10-19T12:06:22.781Z,100321.50
2022-10-19T12:09:19.924Z,100318.06
2022-10-19T12:12:10.236Z,100326.53
2022-10-19T12:17:54.846Z,100335.81
2022-10-19T12:20:46.557Z,100327.12
2022-10-19T12:23:34.861Z,100327.75
2022-10-19T12:26:23.582Z,100327.94
2022-10-19T12:29:18.166Z,100317.47
2022-10-19T12:35:08.598Z,100315.28
2022-10-19T12:38:06.536Z,100312.44
2022-10-19T12:40:55.942Z,100313.72
2022-10-19T12:43:52.687Z,100315.44
2022-10-19T12:46:41.797Z,100299.84
2022-10-19T12:52:41.636Z,100306.53
2022-10-19T12:55:35.004Z,100302.38
2022-10-19T12:58:27.775Z,100292.44
2022-10-19T13:01:28.085Z,100294.06
2022-10-19T13:04:15.658Z,100291.31
2022-10-19T13:07:04.999Z,100290.34
2022-10-19T13:10:04.906Z,100293.59
2022-10-19T13:12:54.832Z,100290.12
2022-10-19T13:15:43.400Z,100288.28
2022-10-19T13:18:51.509Z,100291.75
2022-10-19T13:21:49.896Z,100309.47
2022-10-19T13:24:38.619Z,100278.34
2022-10-19T13:27:26.898Z,100287.25
2022-10-19T13:30:32.741Z,100292.84
2022-10-19T13:33:39.633Z,100300.88
2022-10-19T13:36:32.559Z,100297.31
2022-10-19T13:39:26.039Z,100293.22
2022-10-19T13:42:27.035Z,100294.06
2022-10-19T13:45:28.572Z,100298.72
2022-10-19T13:48:23.788Z,100299.69
2022-10-19T13:51:21.571Z,100284.31
2022-10-19T13:54:22.619Z,100281.56
2022-10-19T13:57:27.996Z,100286.84
2022-10-19T14:03:23.614Z,100295.13
2022-10-19T14:06:17.523Z,100296.78
2022-10-19T14:09:25.489Z,100292.78
2022-10-19T14:12:23.596Z,100283.66
2022-10-19T14:15:29.540Z,100293.28
2022-10-19T14:18:27.877Z,100287.03
2022-10-19T14:21:38.618Z,100294.19
2022-10-19T14:24:34.878Z,100289.34
2022-10-19T14:27:24.796Z,100294.31
2022-10-19T14:30:24.319Z,100294.87
2022-10-19T14:36:17.539Z,100268.31
2022-10-19T14:39:20.934Z,100282.94
2022-10-19T14:42:09.684Z,100308.63
2022-10-19T14:44:58.637Z,100302.50
2022-10-19T14:48:00.629Z,100313.47
2022-10-19T14:50:48.016Z,100291.34
2022-10-19T14:53:45.874Z,100294.00
2022-10-19T14:56:35.374Z,100300.19
2022-10-19T14:59:26.689Z,100290.84
2022-10-19T15:05:19.048Z,100291.81
2022-10-19T15:08:07.908Z,100290.00
2022-10-19T15:11:00.628Z,100289.62
2022-10-19T15:13:52.014Z,100302.09
2022-10-19T15:16:46.793Z,100299.13
2022-10-19T15:19:34.572Z,100309.38
2022-10-19T15:22:27.639Z,100291.75
2022-10-19T15:25:28.742Z,100305.31
2022-10-19T15:28:40.579Z,100308.56
2022-10-19T15:31:29.006Z,100307.00
2022-10-19T15:34:37.670Z,100304.72
2022-10-19T15:37:24.474Z,100305.50
2022-10-19T15:40:27.661Z,100304.72
2022-10-19T15:43:33.538Z,100296.78
2022-10-19T15:49:43.622Z,100307.16
2022-10-19T15:52:40.893Z,100305.66
2022-10-19T15:55:29.551Z,100313.47
2022-10-19T15:58:27.273Z,100320.28
2022-10-19T16:01:16.123Z,100331.72
2022-10-19T16:04:06.045Z,100345.44
2022-10-19T16:06:57.033Z,100339.09
2022-10-19T16:09:45.034Z,100342.69
2022-10-19T16:12:32.776Z,100336.19
2022-10-19T16:15:28.602Z,100334.50
2022-10-19T16:21:24.555Z,100342.53
2022-10-19T16:24:22.022Z,100340.06
2022-10-19T16:27:14.470Z,100344.78
2022-10-19T16:30:03.721Z,100341.00
2022-10-19T16:33:05.848Z,100347.66
2022-10-19T16:35:53.568Z,100340.59
2022-10-19T16:38:50.633Z,100339.00
2022-10-19T16:41:44.591Z,100352.03
2022-10-19T16:44:38.767Z,100348.31
2022-10-19T16:47:27.202Z,100363.84
2022-10-19T16:50:26.740Z,100370.34
2022-10-19T16:53:14.426Z,100373.22
2022-10-19T16:59:14.993Z,100377.88
2022-10-19T17:02:03.858Z,100380.81
2022-10-19T17:04:54.160Z,100393.37
2022-10-19T17:07:47.989Z,100405.03
2022-10-19T17:10:39.567Z,100410.28
2022-10-19T17:13:45.496Z,100411.22
2022-10-19T17:16:36.527Z,100424.03
2022-10-19T17:19:23.399Z,100410.13
2022-10-19T17:22:18.939Z,100415.53
2022-10-19T17:25:06.121Z,100413.06
2022-10-19T17:27:52.818Z,100407.16
2022-10-19T17:30:53.945Z,100409.75
2022-10-19T17:33:55.989Z,100404.09
2022-10-19T17:36:48.924Z,100408.91
2022-10-19T17:39:45.527Z,100402.69
2022-10-19T17:42:39.531Z,100395.06
2022-10-19T17:45:39.604Z,100397.78
2022-10-19T17:48:30.563Z,100395.25
2022-10-19T17:51:24.561Z,100410.53
2022-10-19T17:54:14.526Z,100417.84
2022-10-19T17:57:06.795Z,100424.78
2022-10-19T17:59:56.811Z,100434.06
2022-10-19T18:02:54.737Z,100416.75
2022-10-19T18:05:55.935Z,100436.63
2022-10-19T18:08:57.674Z,100436.03
2022-10-19T18:14:53.535Z,100442.16
2022-10-19T18:17:48.022Z,100444.16
2022-10-19T18:20:41.776Z,100444.31
2022-10-19T18:23:29.779Z,100443.31
2022-10-19T18:29:16.897Z,100432.50
2022-10-19T18:32:13.003Z,100452.94
2022-10-19T18:35:03.545Z,100447.72
2022-10-19T18:38:02.587Z,100456.91
2022-10-19T18:40:56.578Z,100459.69
2022-10-19T18:43:52.535Z,100474.34
2022-10-19T18:46:43.414Z,100479.53
2022-10-19T18:49:31.250Z,100484.28
2022-10-19T18:52:19.594Z,100477.97
2022-10-19T18:55:17.557Z,100471.63
2022-10-19T18:58:07.112Z,100479.53
2022-10-19T19:01:11.574Z,100488.88
2022-10-19T19:04:07.561Z,100489.47
2022-10-19T19:06:58.954Z,100491.31
2022-10-19T19:09:47.763Z,100506.78
2022-10-19T19:12:37.888Z,100508.25
2022-10-19T19:15:30.614Z,100510.03
2022-10-19T19:21:05.691Z,100507.03
2022-10-19T19:24:06.595Z,100508.63
2022-10-19T19:27:06.758Z,100495.22
2022-10-19T19:30:05.570Z,100488.50
2022-10-19T19:32:53.839Z,100496.59
2022-10-19T19:35:44.001Z,100508.81
2022-10-19T19:38:34.849Z,100510.56
2022-10-19T19:41:24.105Z,100517.44
2022-10-19T19:44:15.717Z,100517.41
2022-10-19T19:47:07.701Z,100510.09
2022-10-19T19:50:06.781Z,100521.81
2022-10-19T19:53:04.800Z,100524.87
2022-10-19T19:55:51.929Z,100522.25
2022-10-19T19:58:47.302Z,100523.75
2022-10-19T20:01:39.590Z,100519.72
2022-10-19T20:04:27.565Z,100538.78
2022-10-19T20:07:15.964Z,100537.75
2022-10-19T20:10:02.546Z,100546.16
2022-10-19T20:12:51.696Z,100535.31
2022-10-19T20:18:34.980Z,100552.19
2022-10-19T20:21:27.578Z,100560.97
2022-10-19T20:24:21.873Z,100554.31
2022-10-19T20:27:13.551Z,100550.06
2022-10-19T20:30:04.588Z,100552.59
2022-10-19T20:32:53.553Z,100565.25
2022-10-19T20:35:40.506Z,100568.19
2022-10-19T20:38:31.793Z,100565.97
2022-10-19T20:41:20.662Z,100571.38
2022-10-19T20:44:10.129Z,100580.38
2022-10-19T20:46:57.091Z,100576.03
2022-10-19T20:49:47.539Z,100573.28
2022-10-19T20:52:35.809Z,100571.34
2022-10-19T20:55:22.803Z,100573.88
2022-10-19T20:58:11.150Z,100571.63
2022-10-19T21:01:02.536Z,100576.03
2022-10-19T21:03:58.364Z,100576.41
2022-10-19T21:06:45.832Z,100584.66
2022-10-19T21:09:32.621Z,100580.81
2022-10-19T21:12:20.569Z,100582.66
2022-10-19T21:15:06.704Z,100593.53
2022-10-19T21:17:53.361Z,100593.69
2022-10-19T21:20:41.039Z,100598.16
2022-10-19T21:23:28.787Z,100595.47
2022-10-19T21:26:18.001Z,100599.53
2022-10-19T21:29:11.526Z,100600.94
2022-10-19T21:31:58.402Z,100605.63
2022-10-19T21:34:45.970Z,100599.84
2022-10-19T21:37:31.764Z,100609.69
2022-10-19T21:40:17.676Z,100601.56
2022-10-19T21:43:03.673Z,100596.34
2022-10-19T21:45:49.931Z,100603.16
2022-10-19T21:51:40.457Z,100603.66
2022-10-19T21:54:27.265Z,100607.25
2022-10-19T21:57:13.968Z,100599.31
2022-10-19T22:00:00.001Z,100603.72
2022-10-19T22:02:48.350Z,100599.31
2022-10-19T22:05:34.426Z,100601.69
2022-10-19T22:08:20.692Z,100609.72
2022-10-19T22:11:11.390Z,100614.66
2022-10-19T22:13:57.998Z,100614.56
2022-10-19T22:16:45.377Z,100600.19
2022-10-19T22:19:31.661Z,100602.81
2022-10-19T22:22:18.817Z,100604.25
2022-10-19T22:25:05.337Z,100595.00
2022-10-19T22:27:53.961Z,100599.78
2022-10-19T22:30:45.057Z,100603.59
2022-10-19T22:33:31.160Z,100597.31
2022-10-19T22:36:17.495Z,100599.75
2022-10-19T22:39:03.963Z,100595.72
2022-10-19T22:41:49.881Z,100599.34
2022-10-19T22:44:36.587Z,100594.72
2022-10-19T22:47:22.849Z,100591.03
2022-10-19T22:50:11.784Z,100590.97
2022-10-19T22:52:57.914Z,100598.03
2022-10-19T22:55:44.433Z,100597.72
2022-10-19T22:58:30.301Z,100601.16
2022-10-19T23:01:16.893Z,100593.31
2022-10-19T23:04:03.017Z,100593.53
2022-10-19T23:06:50.734Z,100599.25
2022-10-19T23:09:36.710Z,100598.09
2022-10-19T23:12:26.751Z,100599.09
2022-10-19T23:15:13.664Z,100609.44
2022-10-19T23:18:00.564Z,100604.72
2022-10-19T23:20:53.167Z,100609.75
2022-10-19T23:23:40.561Z,100616.78
2022-10-19T23:26:26.893Z,100618.50
2022-10-19T23:29:14.884Z,100623.94
2022-10-19T23:32:01.756Z,100634.31
2022-10-19T23:34:48.553Z,100631.47
2022-10-19T23:37:35.283Z,100640.56
2022-10-19T23:40:21.579Z,100638.13
2022-10-19T23:43:07.736Z,100646.38
2022-10-19T23:45:54.104Z,100646.63
2022-10-19T23:48:40.551Z,100649.34
2022-10-19T23:51:27.074Z,100645.91
2022-10-19T23:54:13.478Z,100646.34
2022-10-19T23:57:00.418Z,100649.63
2022-10-19T23:59:46.541Z,100653.09
